Time;durP1;ratioP1;P1;durP2;ratioP2;P2;SDS_P1;SDS_P2;PMS_P1;PMS_P2;Temp;Humidity;BMP_temperature;BMP_pressure;BME280_temperature;BME280_humidity;BME280_pressure;Samples;Min_cycle;Max_cycle;Signal;HPM_P1;HPM_P2
2022/12/31 00:02:24;;;;;;;40.20;4.15;;;;;;;;;;4911234;29;20080;-72
2022/12/31 00:04:50;;;;;;;35.67;4.93;;;;;;;;;;4901116;29;20044;-72
2022/12/31 00:07:16;;;;;;;49.38;4.90;;;;;;;;;;4907100;29;20126;-72
2022/12/31 00:09:42;;;;;;;54.20;5.90;;;;;;;;;;4919842;29;20055;-71
2022/12/31 00:12:09;;;;;;;53.28;6.07;;;;;;;;;;4919399;29;20035;-72
2022/12/31 00:14:35;;;;;;;44.95;5.10;;;;;;;;;;4904196;29;20649;-72
2022/12/31 00:17:01;;;;;;;35.63;5.72;;;;;;;;;;4918844;29;20436;-72
2022/12/31 00:19:27;;;;;;;44.60;5.05;;;;;;;;;;4918955;29;20095;-72
2022/12/31 00:21:53;;;;;;;48.58;5.63;;;;;;;;;;4895318;29;20134;-72
2022/12/31 00:24:19;;;;;;;47.47;4.82;;;;;;;;;;4905056;29;20040;-72
2022/12/31 00:26:45;;;;;;;39.10;6.35;;;;;;;;;;4910146;29;20382;-72
2022/12/31 00:29:11;;;;;;;43.85;4.60;;;;;;;;;;4907774;29;20048;-72
2022/12/31 00:31:38;;;;;;;40.17;5.10;;;;;;;;;;4884721;29;20048;-72
2022/12/31 00:34:04;;;;;;;46.72;4.50;;;;;;;;;;4910490;29;20050;-72
2022/12/31 00:36:30;;;;;;;49.42;5.68;;;;;;;;;;4919570;29;20075;-72
2022/12/31 00:38:57;;;;;;;53.70;5.00;;;;;;;;;;4911348;29;20055;-72
2022/12/31 00:41:24;;;;;;;30.23;4.35;;;10.70;99.90;;;;;;4903342;29;20504;-72
2022/12/31 00:43:50;;;;;;;49.30;5.00;;;;;;;;;;4904042;29;20036;-72
2022/12/31 00:46:17;;;;;;;38.33;5.68;;;;;;;;;;4919487;29;20087;-72
2022/12/31 00:48:43;;;;;;;56.80;6.53;;;;;;;;;;4915504;29;20095;-72
2022/12/31 00:51:10;;;;;;;41.13;5.65;;;;;;;;;;4900292;29;20158;-72
2022/12/31 00:53:37;;;;;;;42.97;5.13;;;;;;;;;;4885761;29;20050;-72
2022/12/31 00:56:06;;;;;;;54.60;7.40;;;10.70;99.90;;;;;;4919144;29;20055;-72
2022/12/31 00:58:32;;;;;;;40.53;5.28;;;;;;;;;;4919474;29;20032;-72
2022/12/31 01:00:58;;;;;;;52.22;5.82;;;;;;;;;;4900557;29;20049;-71
2022/12/31 01:03:25;;;;;;;48.97;5.30;;;;;;;;;;4904542;29;20492;-72
2022/12/31 01:05:51;;;;;;;45.97;4.75;;;;;;;;;;4886533;29;20131;-72
2022/12/31 01:08:17;;;;;;;55.03;5.68;;;;;;;;;;4919151;29;20047;-72
2022/12/31 01:13:35;;;;;;;42.97;4.35;;;;;;;;;;4899611;29;20055;-71
2022/12/31 01:16:11;;;;;;;69.28;5.88;;;;;;;;;;4914655;29;20420;-71
2022/12/31 01:18:38;;;;;;;47.00;4.35;;;;;;;;;;4918928;29;20040;-71
2022/12/31 01:21:05;;;;;;;43.72;5.00;;;;;;;;;;4904500;29;20384;-72
2022/12/31 01:23:31;;;;;;;49.05;5.40;;;;;;;;;;4900030;29;20040;-72
2022/12/31 01:26:02;;;;;;;54.47;6.10;;;10.40;99.90;;;;;;4887615;29;20043;-72
2022/12/31 01:28:28;;;;;;;39.90;4.60;;;;;;;;;;4903200;29;20094;-72
2022/12/31 01:30:54;;;;;;;59.05;6.10;;;;;;;;;;4907591;29;20456;-72
2022/12/31 01:33:20;;;;;;;60.00;5.32;;;;;;;;;;4899988;29;20044;-72
2022/12/31 01:35:47;;;;;;;37.03;5.78;;;;;;;;;;4902793;29;20043;-72
2022/12/31 01:38:13;;;;;;;37.00;5.15;;;;;;;;;;4903218;29;20051;-72
2022/12/31 01:40:39;;;;;;;42.85;5.55;;;;;;;;;;4917466;29;20039;-72
2022/12/31 01:43:16;;;;;;;35.97;4.35;;;;;;;;;;4902236;29;20052;-72
2022/12/31 01:45:43;;;;;;;51.53;4.43;;;;;;;;;;4907594;29;20119;-71
2022/12/31 01:48:12;;;;;;;49.55;6.47;;;10.60;99.90;;;;;;4922531;29;20492;-72
2022/12/31 01:50:39;;;;;;;51.80;5.00;;;;;;;;;;4918499;29;20075;-72
2022/12/31 01:53:06;;;;;;;39.83;4.10;;;;;;;;;;4903704;29;20056;-72
2022/12/31 01:55:36;;;;;;;39.88;4.63;;;10.40;99.90;;;;;;4905634;29;20040;-72
2022/12/31 01:58:24;;;;;;;40.25;4.38;;;10.50;99.90;;;;;;4906778;29;20046;-72
2022/12/31 02:00:51;;;;;;;44.30;5.47;;;;;;;;;;4918853;29;20485;-72
2022/12/31 02:03:18;;;;;;;45.88;5.13;;;;;;;;;;4887854;29;20099;-71
2022/12/31 02:06:03;;;;;;;36.10;3.80;;;10.60;99.90;;;;;;4903623;29;20096;-71
2022/12/31 02:08:29;;;;;;;45.95;4.43;;;;;;;;;;4922525;29;20373;-72
2022/12/31 02:10:55;;;;;;;33.00;4.22;;;;;;;;;;4917612;29;20497;-72
2022/12/31 02:13:21;;;;;;;34.92;4.95;;;;;;;;;;4905115;29;20392;-71
2022/12/31 02:16:11;;;;;;;43.28;4.25;;;10.40;99.90;;;;;;4922042;29;20044;-72
2022/12/31 02:19:12;;;;;;;38.88;5.72;;;10.60;99.90;;;;;;4903648;29;20052;-71
2022/12/31 02:21:38;;;;;;;32.63;4.80;;;;;;;;;;4870010;29;20495;-72
2022/12/31 02:24:16;;;;;;;41.38;4.30;;;;;;;;;;4922382;29;20396;-71
2022/12/31 02:26:45;;;;;;;58.35;9.02;;;;;;;;;;4917602;29;20051;-71
2022/12/31 02:29:47;;;;;;;41.38;5.75;;;10.60;99.90;;;;;;4903056;29;20044;-72
2022/12/31 02:32:15;;;;;;;33.28;6.78;;;;;;;;;;4909952;29;20152;-72
2022/12/31 02:34:51;;;;;;;44.70;5.35;;;10.40;99.90;;;;;;4919885;29;20051;-72
2022/12/31 02:37:18;;;;;;;43.45;5.65;;;;;;;;;;4909007;29;20048;-72
2022/12/31 02:39:44;;;;;;;43.75;6.35;;;;;;;;;;4917360;29;20091;-72
2022/12/31 02:42:11;;;;;;;35.22;6.38;;;10.30;99.90;;;;;;4888818;29;20381;-72
2022/12/31 02:44:38;;;;;;;47.00;7.68;;;;;;;;;;4919860;29;20036;-71
2022/12/31 02:47:22;;;;;;;46.42;6.88;;;;;;;;;;4904251;29;20052;-72
2022/12/31 02:49:48;;;;;;;49.03;8.55;;;;;;;;;;4921633;29;20378;-72
2022/12/31 02:52:14;;;;;;;38.17;6.88;;;;;;;;;;4905498;29;20051;-72
2022/12/31 02:54:50;;;;;;;35.72;7.00;;;;;;;;;;4921436;29;20036;-72
2022/12/31 02:57:35;;;;;;;39.45;5.82;;;;;;;;;;4904552;29;20134;-72
2022/12/31 03:02:51;;;;;;;38.10;6.22;;;10.30;99.90;;;;;;4917111;29;20118;-71
2022/12/31 03:05:21;;;;;;;51.03;8.65;;;10.50;99.90;;;;;;4902726;29;20044;-72
2022/12/31 03:07:47;;;;;;;37.83;7.05;;;;;;;;;;4904726;29;20371;-71
2022/12/31 03:10:14;;;;;;;40.20;6.80;;;;;;;;;;4904872;29;20051;-71
2022/12/31 03:12:47;;;;;;;41.00;7.63;;;;;;;;;;4886676;29;20048;-72
2022/12/31 03:15:19;;;;;;;34.58;6.65;;;;;;;;;;4913932;29;20064;-72
2022/12/31 03:18:06;;;;;;;35.92;6.30;;;10.50;99.90;;;;;;4920741;29;20385;-71
2022/12/31 03:23:37;;;;;;;38.70;6.00;;;10.30;99.90;;;;;;4902903;29;20039;-71
2022/12/31 03:26:10;;;;;;;36.78;5.55;;;;;;;;;;4902156;29;20052;-71
2022/12/31 03:28:37;;;;;;;42.60;5.88;;;10.30;99.90;;;;;;4904569;29;20042;-71
2022/12/31 03:31:03;;;;;;;37.53;5.15;;;;;;;;;;4916406;29;20273;-71
2022/12/31 03:33:31;;;;;;;27.90;4.53;;;10.30;99.90;;;;;;4903398;29;20047;-71
2022/12/31 03:35:57;;;;;;;30.98;5.30;;;;;;;;;;4905876;29;20120;-72
2022/12/31 03:38:23;;;;;;;31.40;4.15;;;;;;;;;;4901840;29;20047;-71
2022/12/31 03:40:52;;;;;;;24.15;4.40;;;10.20;99.90;;;;;;4903168;29;20047;-72
2022/12/31 03:43:19;;;;;;;34.75;4.60;;;10.20;99.90;;;;;;4920617;29;20040;-71
2022/12/31 03:45:53;;;;;;;32.28;4.18;;;;;;;;;;4895867;29;20099;-71
2022/12/31 03:48:20;;;;;;;28.98;4.63;;;10.30;99.90;;;;;;4905084;29;20131;-72
2022/12/31 03:50:46;;;;;;;29.85;5.93;;;;;;;;;;4906316;29;20052;-71
2022/12/31 03:53:13;;;;;;;31.05;5.40;;;;;;;;;;4920721;29;20369;-72
2022/12/31 03:55:39;;;;;;;27.42;4.28;;;;;;;;;;4907333;29;20552;-72
2022/12/31 03:58:05;;;;;;;41.08;5.93;;;;;;;;;;4885897;29;20036;-72
2022/12/31 04:00:31;;;;;;;32.95;4.90;;;;;;;;;;4911568;29;20514;-72
2022/12/31 04:02:57;;;;;;;29.48;7.43;;;;;;;;;;4885695;29;20044;-71
2022/12/31 04:05:24;;;;;;;29.58;6.00;;;;;;;;;;4909425;29;20396;-72
2022/12/31 04:07:51;;;;;;;24.00;4.50;;;;;;;;;;4903551;29;20047;-71
2022/12/31 04:10:17;;;;;;;25.95;6.35;;;;;;;;;;4913784;29;20519;-71
2022/12/31 04:12:43;;;;;;;28.88;5.13;;;;;;;;;;4901399;29;20165;-72
2022/12/31 04:15:14;;;;;;;29.73;4.88;;;10.10;99.90;;;;;;4887056;29;20051;-76
2022/12/31 04:17:40;;;;;;;33.42;5.43;;;;;;;;;;4902502;29;20520;-76
2022/12/31 04:20:07;;;;;;;31.73;4.30;;;;;;;;;;4902392;29;20127;-77
2022/12/31 04:22:33;;;;;;;23.23;3.85;;;;;;;;;;4901195;29;20048;-76
2022/12/31 04:24:59;;;;;;;21.50;4.10;;;;;;;;;;4901053;29;20561;-76
2022/12/31 04:27:25;;;;;;;28.85;5.00;;;;;;;;;;4920097;29;20392;-76
2022/12/31 04:29:51;;;;;;;20.63;3.50;;;;;;;;;;4919972;29;20043;-76
2022/12/31 04:32:17;;;;;;;19.90;3.63;;;;;;;;;;4902434;29;20560;-76
2022/12/31 04:34:43;;;;;;;26.85;3.70;;;;;;;;;;4917436;29;20052;-76
2022/12/31 04:37:09;;;;;;;24.25;2.97;;;;;;;;;;4885515;29;20136;-77
2022/12/31 04:39:35;;;;;;;23.98;4.50;;;;;;;;;;4917734;29;20179;-76
2022/12/31 04:42:01;;;;;;;30.50;3.90;;;;;;;;;;4900959;29;20056;-77
2022/12/31 04:44:28;;;;;;;26.42;4.03;;;;;;;;;;4900881;29;20048;-77
2022/12/31 04:46:54;;;;;;;26.17;4.25;;;;;;;;;;4917943;29;20382;-71
2022/12/31 04:49:20;;;;;;;20.50;3.25;;;;;;;;;;4919614;29;20051;-71
2022/12/31 04:51:46;;;;;;;36.28;4.90;;;;;;;;;;4916883;29;20436;-71
2022/12/31 04:54:12;;;;;;;31.42;4.72;;;;;;;;;;4919390;29;20135;-71
2022/12/31 04:56:38;;;;;;;32.28;4.47;;;;;;;;;;4906218;29;20051;-71
2022/12/31 04:59:06;;;;;;;36.08;3.80;;;;;;;;;;4906926;29;20170;-71
2022/12/31 05:01:32;;;;;;;24.20;3.90;;;;;;;;;;4905799;29;20036;-71
2022/12/31 05:03:58;;;;;;;23.20;4.47;;;;;;;;;;4885000;29;20035;-71
2022/12/31 05:06:24;;;;;;;28.52;5.30;;;;;;;;;;4885903;29;20103;-71
2022/12/31 05:08:50;;;;;;;22.35;4.53;;;;;;;;;;4919102;29;20043;-71
2022/12/31 05:11:16;;;;;;;25.55;5.95;;;;;;;;;;4918656;29;20051;-71
2022/12/31 05:13:43;;;;;;;24.73;4.30;;;;;;;;;;4918412;29;20043;-71
2022/12/31 05:16:09;;;;;;;19.50;5.00;;;;;;;;;;4919003;29;20098;-71
2022/12/31 05:18:36;;;;;;;23.73;5.40;;;;;;;;;;4903111;29;20050;-71
2022/12/31 05:21:02;;;;;;;36.80;6.05;;;;;;;;;;4906208;29;20048;-71
2022/12/31 05:23:28;;;;;;;27.92;4.60;;;;;;;;;;4904891;29;20436;-71
2022/12/31 05:25:54;;;;;;;24.33;5.85;;;;;;;;;;4900000;29;20480;-71
2022/12/31 05:28:21;;;;;;;27.25;6.07;;;;;;;;;;4911369;29;20050;-71
2022/12/31 05:30:48;;;;;;;16.10;4.80;;;10.00;99.90;;;;;;4915021;29;20050;-71
2022/12/31 05:33:15;;;;;;;27.00;6.90;;;;;;;;;;4893979;29;20052;-71
2022/12/31 05:35:41;;;;;;;25.58;6.32;;;;;;;;;;4903011;29;20055;-75
2022/12/31 05:38:07;;;;;;;24.08;6.80;;;;;;;;;;4913663;29;20044;-70
2022/12/31 05:40:33;;;;;;;18.02;5.55;;;;;;;;;;4918566;29;20043;-70
2022/12/31 05:42:59;;;;;;;19.25;4.70;;;;;;;;;;4897258;29;20488;-71
2022/12/31 05:45:25;;;;;;;20.85;4.85;;;;;;;;;;4900128;29;20056;-71
2022/12/31 05:47:51;;;;;;;13.90;3.95;;;;;;;;;;4908423;29;20055;-71
2022/12/31 05:50:17;;;;;;;19.27;3.67;;;;;;;;;;4902715;29;20488;-71
2022/12/31 05:52:44;;;;;;;22.02;4.05;;;;;;;;;;4900739;29;20044;-71
2022/12/31 05:55:11;;;;;;;19.75;4.03;;;;;;;;;;4919028;29;20378;-71
2022/12/31 05:57:38;;;;;;;24.15;4.72;;;;;;;;;;4918676;29;20040;-71
2022/12/31 06:00:05;;;;;;;17.88;4.47;;;;;;;;;;4884902;29;20441;-71
2022/12/31 06:02:31;;;;;;;21.38;6.63;;;;;;;;;;4899732;29;20450;-71
2022/12/31 06:04:57;;;;;;;20.50;5.07;;;;;;;;;;4915567;29;20075;-70
2022/12/31 06:07:23;;;;;;;26.33;6.75;;;;;;;;;;4903022;29;20437;-71
2022/12/31 06:09:49;;;;;;;23.48;8.55;;;;;;;;;;4903964;29;20130;-70
2022/12/31 06:12:15;;;;;;;30.33;9.63;;;;;;;;;;4908502;29;20107;-70
2022/12/31 06:14:41;;;;;;;27.73;9.70;;;;;;;;;;4900003;29;20119;-70
2022/12/31 06:17:09;;;;;;;23.00;9.23;;;;;;;;;;4911768;29;20051;-70
2022/12/31 06:19:35;;;;;;;31.40;10.20;;;;;;;;;;4916633;29;20115;-70
2022/12/31 06:22:01;;;;;;;25.20;9.63;;;;;;;;;;4905557;29;20130;-70
2022/12/31 06:24:28;;;;;;;22.77;8.82;;;;;;;;;;4913009;29;20079;-71
2022/12/31 06:26:54;;;;;;;20.73;7.95;;;;;;;;;;4898654;29;20086;-71
2022/12/31 06:29:20;;;;;;;22.33;7.80;;;;;;;;;;4894253;29;20040;-71
2022/12/31 06:31:46;;;;;;;25.15;8.05;;;;;;;;;;4904958;29;20096;-70
2022/12/31 06:34:12;;;;;;;19.02;7.07;;;;;;;;;;4902966;29;20047;-71
2022/12/31 06:36:38;;;;;;;16.48;6.57;;;;;;;;;;4907897;29;20480;-71
2022/12/31 06:39:04;;;;;;;22.23;8.05;;;;;;;;;;4905799;29;20040;-70
2022/12/31 06:41:31;;;;;;;16.38;7.22;;;;;;;;;;4917667;29;20058;-71
2022/12/31 06:43:57;;;;;;;15.50;7.70;;;;;;;;;;4890774;29;20044;-71
2022/12/31 06:46:23;;;;;;;18.38;6.85;;;;;;;;;;4906393;29;20036;-71
2022/12/31 06:48:50;;;;;;;17.33;7.15;;;;;;;;;;4890381;29;20050;-71
2022/12/31 06:51:18;;;;;;;22.10;7.15;;;10.20;99.90;;;;;;4902059;29;20135;-71
2022/12/31 06:53:48;;;;;;;17.88;7.78;;;10.10;99.90;;;;;;4920788;29;20048;-71
2022/12/31 06:56:17;;;;;;;18.80;7.90;;;9.90;99.90;;;;;;4907663;29;20480;-71
2022/12/31 06:58:44;;;;;;;17.92;7.70;;;;;;;;;;4919362;29;20039;-70
2022/12/31 07:01:40;;;;;;;15.60;7.97;;;9.90;99.90;;;;;;4920328;29;20044;-71
2022/12/31 07:04:10;;;;;;;15.23;7.53;;;;;;;;;;4900773;29;20036;-71
2022/12/31 07:06:42;;;;;;;15.02;7.10;;;;;;;;;;4899987;29;20039;-71
2022/12/31 07:09:09;;;;;;;20.67;7.63;;;;;;;;;;4920220;29;20485;-70
2022/12/31 07:11:53;;;;;;;14.68;7.15;;;;;;;;;;4905078;29;20044;-70
2022/12/31 07:14:40;;;;;;;16.70;7.32;;;;;;;;;;4903167;29;20085;-70
2022/12/31 07:17:16;;;;;;;16.92;7.93;;;;;;;;;;4915276;29;20036;-70
2022/12/31 07:20:05;;;;;;;17.77;8.65;;;;;;;;;;4904155;29;20066;-71
2022/12/31 07:22:31;;;;;;;18.95;7.05;;;;;;;;;;4888953;29;20044;-70
2022/12/31 07:24:57;;;;;;;18.55;8.68;;;;;;;;;;4905271;29;20044;-71
2022/12/31 07:27:26;;;;;;;17.80;8.00;;;;;;;;;;4919250;29;20511;-71
2022/12/31 07:30:18;;;;;;;16.75;8.27;;;;;;;;;;4889771;29;20107;-71
2022/12/31 07:32:48;;;;;;;16.60;7.30;;;;;;;;;;4906250;29;20060;-70
2022/12/31 07:35:26;;;;;;;13.27;7.53;;;;;;;;;;4904741;29;20083;-71
2022/12/31 07:38:04;;;;;;;14.88;8.07;;;9.80;99.90;;;;;;4900561;29;20120;-71
2022/12/31 07:40:49;;;;;;;15.27;7.72;;;;;;;;;;4886892;29;20473;-71
2022/12/31 07:43:24;;;;;;;15.18;7.93;;;9.90;99.90;;;;;;4902331;29;20056;-71
2022/12/31 07:45:55;;;;;;;18.77;7.95;;;;;;;;;;4920568;29;20047;-71
2022/12/31 07:48:23;;;;;;;13.82;7.93;;;;;;;;;;4918750;29;20043;-71
2022/12/31 07:50:49;;;;;;;14.45;7.32;;;;;;;;;;4892210;29;20048;-71
2022/12/31 07:53:15;;;;;;;17.40;7.82;;;;;;;;;;4907077;29;20047;-71
2022/12/31 07:55:41;;;;;;;14.85;7.63;;;;;;;;;;4910653;29;20036;-71
2022/12/31 07:58:21;;;;;;;11.10;7.30;;;;;;;;;;4901378;29;20087;-72
2022/12/31 08:00:48;;;;;;;12.18;7.78;;;9.70;99.90;;;;;;4902676;29;20123;-72
2022/12/31 08:03:27;;;;;;;14.60;8.30;;;;;;;;;;4901328;29;20134;-72
2022/12/31 08:06:11;;;;;;;14.85;8.00;;;;;;;;;;4918911;29;20047;-70
2022/12/31 08:09:03;;;;;;;15.80;7.40;;;9.70;99.90;;;;;;4903593;29;20040;-71
2022/12/31 08:11:56;;;;;;;16.02;7.45;;;9.70;99.90;;;;;;4910654;29;20508;-72
2022/12/31 08:14:22;;;;;;;12.85;7.07;;;;;;;;;;4888084;29;20501;-71
2022/12/31 08:16:49;;;;;;;11.57;6.65;;;;;;;;;;4917963;29;20114;-71
2022/12/31 08:19:26;;;;;;;13.63;7.53;;;9.60;99.90;;;;;;4888001;29;20042;-70
2022/12/31 08:21:52;;;;;;;12.52;6.80;;;;;;;;;;4919414;29;20048;-71
2022/12/31 08:24:28;;;;;;;12.00;7.38;;;;;;;;;;4919356;29;20102;-71
2022/12/31 08:26:54;;;;;;;12.80;7.15;;;;;;;;;;4900859;29;20455;-71
2022/12/31 08:29:48;;;;;;;12.15;6.57;;;10.00;99.90;;;;;;4921758;29;20094;-70
2022/12/31 08:32:23;;;;;;;12.85;6.80;;;10.00;99.90;;;;;;4891428;29;20428;-70
2022/12/31 08:35:18;;;;;;;12.35;7.82;;;;;;;;;;4887479;29;20064;-70
2022/12/31 08:37:53;;;;;;;14.57;8.23;;;10.00;99.90;;;;;;4837334;29;20065;-70
2022/12/31 08:40:45;;;;;;;12.02;7.35;;;9.90;99.90;;;;;;4906887;29;20505;-71
2022/12/31 08:43:41;;;;;;;16.30;8.25;;;10.20;99.90;;;;;;4889883;29;20054;-71
2022/12/31 08:46:11;;;;;;;16.25;8.75;;;;;;;;;;4919150;29;20069;-74
2022/12/31 08:48:42;;;;;;;16.40;9.35;;;10.20;99.90;;;;;;4919509;29;20395;-74
2022/12/31 08:51:13;;;;;;;18.42;9.10;;;;;;;;;;4909051;29;20040;-74
2022/12/31 08:53:39;;;;;;;15.65;9.18;;;9.40;99.90;;;;;;4900393;29;20461;-74
2022/12/31 08:56:09;;;;;;;20.08;9.25;;;;;;;;;;4902713;29;20047;-75
2022/12/31 08:58:56;;;;;;;17.75;9.23;;;;;;;;;;4919328;29;20048;-75
2022/12/31 09:01:24;;;;;;;17.38;9.07;;;;;;;;;;4918668;29;20039;-74
2022/12/31 09:04:27;;;;;;;19.63;7.88;;;10.80;99.90;;;;;;4917632;29;20047;-75
2022/12/31 09:06:58;;;;;;;20.88;8.20;;;;;;;;;;4897358;29;20059;-74
2022/12/31 09:09:57;;;;;;;21.48;8.52;;;10.70;99.90;;;;;;4904158;29;20048;-75
2022/12/31 09:12:30;;;;;;;24.75;7.80;;;;;;;;;;4911672;29;20063;-74
2022/12/31 09:15:23;;;;;;;19.42;7.65;;;10.90;99.90;;;;;;4919154;29;20047;-74
2022/12/31 09:17:51;;;;;;;24.27;7.50;;;;;;;;;;4908098;29;20056;-74
2022/12/31 09:20:25;;;;;;;22.83;6.88;;;10.90;99.90;;;;;;4900031;29;20051;-74
2022/12/31 09:22:52;;;;;;;30.02;6.45;;;10.90;99.90;;;;;;4916870;29;20083;-74
2022/12/31 09:25:20;;;;;;;16.98;6.43;;;10.80;99.90;;;;;;4918736;29;20374;-74
2022/12/31 09:27:55;;;;;;;19.85;5.72;;;;;;;;;;4903886;29;20056;-74
2022/12/31 09:30:21;;;;;;;19.70;6.00;;;;;;;;;;4884484;29;20043;-74
2022/12/31 09:33:06;;;;;;;19.90;5.20;;;;;;;;;;4894911;29;20044;-74
2022/12/31 09:35:46;;;;;;;32.22;6.63;;;;;;;;;;4891472;29;20149;-74
2022/12/31 09:38:21;;;;;;;24.85;7.75;;;;;;;;;;4901209;29;20047;-73
2022/12/31 09:41:26;;;;;;;11.50;4.47;;;11.20;99.90;;;;;;4898168;29;20108;-74
2022/12/31 09:44:11;;;;;;;18.95;4.78;;;;;;;;;;4909013;29;20051;-74
2022/12/31 09:46:56;;;;;;;20.48;3.42;;;;;;;;;;4910115;29;20040;-74
2022/12/31 09:49:41;;;;;;;23.15;3.33;;;;;;;;;;4898701;29;20055;-73
2022/12/31 09:52:19;;;;;;;27.73;5.50;;;;;;;;;;4888128;29;20130;-73
2022/12/31 09:55:04;;;;;;;25.38;5.00;;;11.30;99.90;;;;;;4902356;29;20404;-73
2022/12/31 09:57:49;;;;;;;23.65;3.55;;;;;;;;;;4913726;29;20051;-73
2022/12/31 10:00:29;;;;;;;21.45;4.15;;;11.70;99.90;;;;;;4899918;29;20036;-73
2022/12/31 10:02:58;;;;;;;24.25;3.28;;;;;;;;;;4903967;29;20520;-73
2022/12/31 10:05:56;;;;;;;18.92;3.63;;;11.50;99.90;;;;;;4904749;29;20400;-73
2022/12/31 10:08:46;;;;;;;26.58;3.53;;;11.60;99.90;;;;;;4912295;29;20051;-73
2022/12/31 10:11:12;;;;;;;24.35;3.63;;;;;;;;;;4920596;29;20054;-73
2022/12/31 10:13:43;;;;;;;28.02;4.50;;;;;;;;;;4909566;29;20069;-74
2022/12/31 10:16:22;;;;;;;33.92;5.22;;;;;;;;;;4915829;29;20044;-73
2022/12/31 10:19:03;;;;;;;26.50;3.67;;;;;;;;;;4928294;29;20036;-73
2022/12/31 10:21:29;;;;;;;30.98;4.80;;;;;;;;;;4925531;29;20075;-73
2022/12/31 10:24:10;;;;;;;30.98;3.78;;;12.00;99.90;;;;;;4912460;29;20051;-73
2022/12/31 10:27:08;;;;;;;26.35;4.38;;;12.00;99.90;;;;;;4910711;29;20096;-73
2022/12/31 10:30:02;;;;;;;28.80;4.95;;;12.00;99.90;;;;;;4882437;29;20047;-73
2022/12/31 10:32:34;;;;;;;32.95;5.50;;;;;;;;;;4896666;29;20445;-73
2022/12/31 10:35:01;;;;;;;37.08;3.88;;;;;;;;;;4916255;29;20055;-73
2022/12/31 10:37:41;;;;;;;33.17;3.85;;;;;;;;;;4904789;29;20058;-73
2022/12/31 10:40:38;;;;;;;34.50;4.53;;;;;;;;;;4907403;29;20044;-73
2022/12/31 10:43:23;;;;;;;35.75;4.50;;;;;;;;;;4922380;29;20060;-72
2022/12/31 10:45:49;;;;;;;33.35;4.32;;;;;;;;;;4908712;29;20050;-72
2022/12/31 10:48:31;;;;;;;47.75;5.55;;;12.00;99.90;;;;;;4917814;29;20424;-72
2022/12/31 10:51:22;;;;;;;39.88;4.50;;;12.10;99.90;;;;;;4913472;29;20481;-74
2022/12/31 10:54:22;;;;;;;33.92;4.45;;;12.30;99.90;;;;;;4910816;29;20110;-73
2022/12/31 10:56:56;;;;;;;47.28;4.28;;;12.00;99.90;;;;;;4896469;29;20051;-73
2022/12/31 11:00:00;;;;;;;38.38;6.05;;;12.10;99.90;;;;;;4913752;29;20128;-74
2022/12/31 11:02:28;;;;;;;42.78;5.22;;;12.10;99.90;;;;;;4903043;29;20044;-74
2022/12/31 11:05:06;;;;;;;37.33;6.40;;;;;;;;;;4889335;29;20051;-72
2022/12/31 11:07:48;;;;;;;34.10;6.57;;;12.30;99.90;;;;;;4905959;29;20047;-73
2022/12/31 11:10:33;;;;;;;35.55;6.93;;;;;;;;;;4907803;29;20060;-74
2022/12/31 11:13:08;;;;;;;44.00;5.05;;;;;;;;;;4915212;29;20106;-74
2022/12/31 11:16:01;;;;;;;42.88;4.22;;;12.40;99.90;;;;;;4889482;29;20055;-73
2022/12/31 11:18:46;;;;;;;46.92;5.95;;;12.20;99.90;;;;;;4911130;29;20050;-73
2022/12/31 11:21:18;;;;;;;35.67;4.70;;;;;;;;;;4911869;29;20386;-73
2022/12/31 11:24:08;;;;;;;33.72;4.05;;;12.30;99.90;;;;;;4910150;29;20043;-73
2022/12/31 11:27:05;;;;;;;38.70;4.88;;;12.20;99.90;;;;;;4913063;29;20043;-73
2022/12/31 11:30:05;;;;;;;35.10;3.72;;;12.40;99.90;;;;;;4893080;29;20040;-73
2022/12/31 11:32:56;;;;;;;41.53;4.90;;;12.20;99.90;;;;;;4917408;29;20043;-73
2022/12/31 11:35:31;;;;;;;30.10;3.75;;;;;;;;;;4902600;29;20036;-72
2022/12/31 11:38:15;;;;;;;39.05;3.85;;;12.60;99.90;;;;;;4912692;29;20048;-73
2022/12/31 11:41:04;;;;;;;27.17;3.45;;;12.40;99.90;;;;;;4914176;29;20039;-73
2022/12/31 11:43:34;;;;;;;43.28;4.93;;;12.60;99.90;;;;;;4909093;29;20081;-73
2022/12/31 11:46:20;;;;;;;35.65;4.97;;;;;;;;;;4909895;29;20052;-73
2022/12/31 11:49:01;;;;;;;48.13;8.27;;;12.40;99.90;;;;;;4910707;29;20036;-73
2022/12/31 11:51:27;;;;;;;35.08;4.90;;;;;;;;;;4909279;29;20243;-76
2022/12/31 11:54:20;;;;;;;39.63;5.45;;;12.60;99.90;;;;;;4906305;29;20040;-70
2022/12/31 11:56:51;;;;;;;;;;;12.30;99.90;;;;;;4894532;29;20090;-71
2022/12/31 11:59:17;;;;;;;44.47;5.30;;;;;;;;;;4919289;29;19918;-71
2022/12/31 12:01:56;;;;;;;32.65;4.72;;;12.60;99.90;;;;;;4904583;29;20040;-70
2022/12/31 12:04:23;;;;;;;37.00;4.60;;;12.40;99.90;;;;;;4920192;29;20075;-70
2022/12/31 12:06:50;;;;;;;32.53;4.85;;;12.60;99.90;;;;;;4920153;29;20118;-71
2022/12/31 12:09:26;;;;;;;28.85;5.97;;;;;;;;;;4921021;29;20051;-70
2022/12/31 12:12:00;;;;;;;30.58;5.85;;;12.40;99.90;;;;;;4904647;29;20090;-72
2022/12/31 12:14:40;;;;;;;31.00;4.05;;;;;;;;;;4920583;29;20047;-71
2022/12/31 12:17:08;;;;;;;31.83;4.78;;;;;;;;;;4901294;29;20051;-71
2022/12/31 12:19:40;;;;;;;32.97;5.97;;;12.50;99.90;;;;;;4901054;29;20040;-71
2022/12/31 12:22:10;;;;;;;36.13;5.68;;;;;;;;;;4901124;29;20084;-71
2022/12/31 12:24:37;;;;;;;38.92;6.13;;;;;;;;;;4901063;29;20127;-70
2022/12/31 12:27:03;;;;;;;22.30;4.15;;;;;;;;;;4885433;29;20044;-71
2022/12/31 12:29:33;;;;;;;36.00;5.10;;;12.50;99.90;;;;;;4902201;29;20047;-74
2022/12/31 12:32:04;;;;;;;37.78;5.20;;;12.30;99.90;;;;;;4901923;29;20043;-74
2022/12/31 12:34:37;;;;;;;41.35;6.00;;;12.70;99.90;;;;;;4897275;29;20519;-74
2022/12/31 12:37:03;;;;;;;41.60;7.38;;;;;;;;;;4899166;29;20444;-74
2022/12/31 12:39:31;;;;;;;38.70;7.32;;;;;;;;;;4903523;29;20092;-70
2022/12/31 12:42:14;;;;;;;41.63;5.35;;;12.30;99.90;;;;;;4895900;29;20056;-70
2022/12/31 12:44:40;;;;;;;48.15;6.13;;;;;;;;;;4902470;29;20044;-70
2022/12/31 12:47:14;;;;;;;31.20;5.32;;;12.30;99.90;;;;;;4915782;29;20063;-70
2022/12/31 12:49:40;;;;;;;47.10;6.25;;;;;;;;;;4913665;29;20493;-70
2022/12/31 12:52:25;;;;;;;43.92;6.25;;;12.40;99.90;;;;;;4912561;29;20459;-70
2022/12/31 12:55:04;;;;;;;39.03;5.35;;;;;;;;;;4893804;29;20119;-70
2022/12/31 12:57:59;;;;;;;43.20;5.07;;;;;;;;;;4901034;29;20044;-70
2022/12/31 13:00:34;;;;;;;37.28;4.82;;;12.50;99.90;;;;;;4872659;29;20055;-70
2022/12/31 13:03:33;;;;;;;46.15;6.90;;;12.40;99.90;;;;;;4919392;29;20044;-71
2022/12/31 13:06:02;;;;;;;41.45;5.00;;;;;;;;;;4919430;29;20052;-71
2022/12/31 13:09:09;;;;;;;43.30;5.60;;;12.30;99.90;;;;;;4902640;29;20071;-71
2022/12/31 13:12:03;;;;;;;30.30;5.43;;;12.20;99.90;;;;;;4918706;29;20138;-71
2022/12/31 13:14:52;;;;;;;53.72;10.38;;;12.20;99.90;;;;;;4919277;29;20043;-70
2022/12/31 13:17:27;;;;;;;42.45;4.85;;;;;;;;;;4936071;29;20404;-70
2022/12/31 13:20:18;;;;;;;50.92;6.60;;;12.30;99.90;;;;;;4903592;29;20058;-71
2022/12/31 13:22:53;;;;;;;59.13;7.40;;;12.20;99.90;;;;;;4900455;29;20103;-71
2022/12/31 13:25:37;;;;;;;36.13;4.07;;;12.40;99.90;;;;;;4915806;29;20527;-70
2022/12/31 13:28:05;;;;;;;34.95;5.90;;;;;;;;;;4921465;29;20039;-70
2022/12/31 13:30:35;;;;;;;30.52;4.50;;;12.40;99.90;;;;;;4888735;29;20039;-70
2022/12/31 13:33:18;;;;;;;37.00;5.50;;;12.10;99.90;;;;;;4887911;29;20642;-70
2022/12/31 13:36:05;;;;;;;55.42;6.70;;;12.30;99.90;;;;;;4890049;29;20052;-70
2022/12/31 13:38:41;;;;;;;30.27;4.22;;;;;;;;;;4914549;29;20142;-70
2022/12/31 13:41:35;;;;;;;38.45;5.15;;;12.20;99.90;;;;;;4908519;29;20036;-70
2022/12/31 13:44:10;;;;;;;30.90;4.18;;;;;;;;;;4901382;29;20083;-70
2022/12/31 13:46:48;;;;;;;37.58;4.47;;;;;;;;;;4912340;29;20036;-70
2022/12/31 13:49:18;;;;;;;26.58;3.72;;;;;;;;;;4902395;29;20049;-70
2022/12/31 13:51:44;;;;;;;27.05;3.10;;;;;;;;;;4902535;29;20074;-70
2022/12/31 13:54:10;;;;;;;75.82;28.33;;;;;;;;;;4903683;29;20126;-70
2022/12/31 13:56:38;;;;;;;26.55;3.78;;;;;;;;;;4903735;29;20051;-70
2022/12/31 13:59:13;;;;;;;62.47;26.58;;;12.20;99.90;;;;;;4903677;29;20052;-70
2022/12/31 14:01:43;;;;;;;17.70;3.10;;;;;;;;;;4903896;29;20122;-70
2022/12/31 14:04:17;;;;;;;13.45;3.10;;;12.20;99.90;;;;;;4903688;29;20052;-69
2022/12/31 14:06:44;;;;;;;14.85;4.40;;;;;;;;;;4903802;29;20059;-69
2022/12/31 14:09:23;;;;;;;17.92;3.15;;;12.40;99.90;;;;;;4903564;29;20052;-70
2022/12/31 14:12:16;;;;;;;12.30;2.60;;;12.20;99.90;;;;;;4903572;29;20512;-69
2022/12/31 14:14:51;;;;;;;17.52;3.33;;;12.20;99.90;;;;;;4919268;29;20044;-70
2022/12/31 14:17:27;;;;;;;15.65;3.30;;;;;;;;;;4903479;29;20044;-70
2022/12/31 14:19:59;;;;;;;14.20;3.72;;;;;;;;;;4903476;29;20048;-70
2022/12/31 14:22:48;;;;;;;12.70;3.75;;;12.10;99.90;;;;;;4903593;29;20107;-70
2022/12/31 14:25:26;;;;;;;11.82;2.88;;;12.30;99.90;;;;;;4903679;29;20070;-70
2022/12/31 14:27:54;;;;;;;37.97;14.52;;;;;;;;;;4903254;29;20051;-70
2022/12/31 14:30:24;;;;;;;16.42;4.90;;;12.30;99.90;;;;;;4903408;29;20051;-70
2022/12/31 14:33:14;;;;;;;18.70;4.47;;;12.30;99.90;;;;;;4903261;29;20055;-70
2022/12/31 14:35:50;;;;;;;12.85;4.60;;;12.20;99.90;;;;;;4887509;29;20370;-70